sensor_id;sensor_type;location;lat;lon;timestamp;pressure;altitude;pressure_sealevel;temperature
44429;BMP180;30134;47.866;-4.222;2022-11-20T00:01:23;101306.00;;;23.70
44429;BMP180;30134;47.866;-4.222;2022-11-20T00:03:51;101303.00;;;23.80
44429;BMP180;30134;47.866;-4.222;2022-11-20T00:06:19;101300.00;;;23.80
44429;BMP180;30134;47.866;-4.222;2022-11-20T00:08:46;101290.00;;;23.80
44429;BMP180;30134;47.866;-4.222;2022-11-20T00:11:21;101281.00;;;23.80
44429;BMP180;30134;47.866;-4.222;2022-11-20T00:13:51;101283.00;;;23.80
44429;BMP180;30134;47.866;-4.222;2022-11-20T00:16:20;101275.00;;;23.80
44429;BMP180;30134;47.866;-4.222;2022-11-20T00:18:46;101273.00;;;23.80
44429;BMP180;30134;47.866;-4.222;2022-11-20T00:21:19;101264.00;;;23.80
44429;BMP180;30134;47.866;-4.222;2022-11-20T00:23:45;101263.00;;;23.80
44429;BMP180;30134;47.866;-4.222;2022-11-20T00:26:14;101259.00;;;23.80
44429;BMP180;30134;47.866;-4.222;2022-11-20T00:28:42;101257.00;;;23.80
44429;BMP180;30134;47.866;-4.222;2022-11-20T00:31:14;101260.00;;;23.80
44429;BMP180;30134;47.866;-4.222;2022-11-20T00:33:42;101251.00;;;23.80
44429;BMP180;30134;47.866;-4.222;2022-11-20T00:36:13;101251.00;;;23.80
44429;BMP180;30134;47.866;-4.222;2022-11-20T00:38:39;101244.00;;;23.80
44429;BMP180;30134;47.866;-4.222;2022-11-20T00:41:09;101230.00;;;23.80
44429;BMP180;30134;47.866;-4.222;2022-11-20T00:43:36;101234.00;;;23.80
44429;BMP180;30134;47.866;-4.222;2022-11-20T00:46:09;101220.00;;;23.80
44429;BMP180;30134;47.866;-4.222;2022-11-20T00:48:35;101221.00;;;23.80
44429;BMP180;30134;47.866;-4.222;2022-11-20T00:51:01;101216.00;;;23.80
44429;BMP180;30134;47.866;-4.222;2022-11-20T00:53:27;101207.00;;;23.80
44429;BMP180;30134;47.866;-4.222;2022-11-20T00:56:10;101208.00;;;23.80
44429;BMP180;30134;47.866;-4.222;2022-11-20T00:58:40;101212.00;;;23.80
44429;BMP180;30134;47.866;-4.222;2022-11-20T01:01:15;101198.00;;;23.80
44429;BMP180;30134;47.866;-4.222;2022-11-20T01:03:45;101191.00;;;23.80
44429;BMP180;30134;47.866;-4.222;2022-11-20T01:08:47;101186.00;;;23.80
44429;BMP180;30134;47.866;-4.222;2022-11-20T01:11:25;101187.00;;;23.90
44429;BMP180;30134;47.866;-4.222;2022-11-20T01:13:54;101176.00;;;23.80
44429;BMP180;30134;47.866;-4.222;2022-11-20T01:16:36;101182.00;;;23.80
44429;BMP180;30134;47.866;-4.222;2022-11-20T01:19:05;101170.00;;;23.80
44429;BMP180;30134;47.866;-4.222;2022-11-20T01:21:35;101166.00;;;23.80
44429;BMP180;30134;47.866;-4.222;2022-11-20T01:24:02;101161.00;;;23.90
44429;BMP180;30134;47.866;-4.222;2022-11-20T01:26:34;101161.00;;;23.90
44429;BMP180;30134;47.866;-4.222;2022-11-20T01:29:02;101155.00;;;23.90
44429;BMP180;30134;47.866;-4.222;2022-11-20T01:31:34;101152.00;;;23.90
44429;BMP180;30134;47.866;-4.222;2022-11-20T01:34:11;101136.00;;;23.90
44429;BMP180;30134;47.866;-4.222;2022-11-20T01:36:38;101140.00;;;23.90
44429;BMP180;30134;47.866;-4.222;2022-11-20T01:39:16;101152.00;;;23.90
44429;BMP180;30134;47.866;-4.222;2022-11-20T01:41:44;101142.00;;;23.90
44429;BMP180;30134;47.866;-4.222;2022-11-20T01:44:59;101134.00;;;23.90
44429;BMP180;30134;47.866;-4.222;2022-11-20T01:47:41;101145.00;;;23.90
44429;BMP180;30134;47.866;-4.222;2022-11-20T01:50:25;101137.00;;;23.90
44429;BMP180;30134;47.866;-4.222;2022-11-20T01:53:05;101123.00;;;23.90
44429;BMP180;30134;47.866;-4.222;2022-11-20T01:55:43;101128.00;;;23.90
44429;BMP180;30134;47.866;-4.222;2022-11-20T01:58:12;101132.00;;;23.90
44429;BMP180;30134;47.866;-4.222;2022-11-20T02:00:40;101125.00;;;23.90
44429;BMP180;30134;47.866;-4.222;2022-11-20T02:03:13;101136.00;;;23.90
44429;BMP180;30134;47.866;-4.222;2022-11-20T02:06:09;101138.00;;;23.90
44429;BMP180;30134;47.866;-4.222;2022-11-20T02:08:38;101142.00;;;23.90
44429;BMP180;30134;47.866;-4.222;2022-11-20T02:11:04;101138.00;;;23.90
44429;BMP180;30134;47.866;-4.222;2022-11-20T02:13:30;101135.00;;;23.90
44429;BMP180;30134;47.866;-4.222;2022-11-20T02:16:34;101130.00;;;23.90
44429;BMP180;30134;47.866;-4.222;2022-11-20T02:19:04;101127.00;;;23.90
44429;BMP180;30134;47.866;-4.222;2022-11-20T02:22:12;101128.00;;;23.90
44429;BMP180;30134;47.866;-4.222;2022-11-20T02:24:41;101119.00;;;23.90
44429;BMP180;30134;47.866;-4.222;2022-11-20T02:27:14;101120.00;;;23.90
44429;BMP180;30134;47.866;-4.222;2022-11-20T02:29:58;101115.00;;;23.90
44429;BMP180;30134;47.866;-4.222;2022-11-20T02:32:29;101113.00;;;23.90
44429;BMP180;30134;47.866;-4.222;2022-11-20T02:34:57;101127.00;;;23.90
44429;BMP180;30134;47.866;-4.222;2022-11-20T02:37:32;101117.00;;;23.90
44429;BMP180;30134;47.866;-4.222;2022-11-20T02:39:59;101124.00;;;23.90
44429;BMP180;30134;47.866;-4.222;2022-11-20T02:42:25;101132.00;;;23.90
44429;BMP180;30134;47.866;-4.222;2022-11-20T02:44:51;101144.00;;;23.90
44429;BMP180;30134;47.866;-4.222;2022-11-20T02:47:20;101141.00;;;23.90
44429;BMP180;30134;47.866;-4.222;2022-11-20T02:49:46;101159.00;;;23.90
44429;BMP180;30134;47.866;-4.222;2022-11-20T02:52:12;101156.00;;;23.90
44429;BMP180;30134;47.866;-4.222;2022-11-20T02:54:38;101152.00;;;23.90
44429;BMP180;30134;47.866;-4.222;2022-11-20T02:57:03;101161.00;;;23.90
44429;BMP180;30134;47.866;-4.222;2022-11-20T02:59:29;101163.00;;;23.90
44429;BMP180;30134;47.866;-4.222;2022-11-20T03:01:55;101160.00;;;24.00
44429;BMP180;30134;47.866;-4.222;2022-11-20T03:04:21;101163.00;;;24.00
44429;BMP180;30134;47.866;-4.222;2022-11-20T03:06:47;101158.00;;;24.00
44429;BMP180;30134;47.866;-4.222;2022-11-20T03:09:13;101168.00;;;24.00
44429;BMP180;30134;47.866;-4.222;2022-11-20T03:11:39;101164.00;;;23.90
44429;BMP180;30134;47.866;-4.222;2022-11-20T03:14:05;101170.00;;;23.90
44429;BMP180;30134;47.866;-4.222;2022-11-20T03:16:32;101167.00;;;24.00
44429;BMP180;30134;47.866;-4.222;2022-11-20T03:18:58;101176.00;;;24.00
44429;BMP180;30134;47.866;-4.222;2022-11-20T03:21:24;101170.00;;;24.00
44429;BMP180;30134;47.866;-4.222;2022-11-20T03:23:50;101181.00;;;24.00
44429;BMP180;30134;47.866;-4.222;2022-11-20T03:26:21;101184.00;;;24.00
44429;BMP180;30134;47.866;-4.222;2022-11-20T03:29:08;101183.00;;;24.00
44429;BMP180;30134;47.866;-4.222;2022-11-20T03:31:38;101185.00;;;24.00
44429;BMP180;30134;47.866;-4.222;2022-11-20T03:34:11;101184.00;;;24.00
44429;BMP180;30134;47.866;-4.222;2022-11-20T03:36:42;101184.00;;;24.00
44429;BMP180;30134;47.866;-4.222;2022-11-20T03:39:08;101193.00;;;24.00
44429;BMP180;30134;47.866;-4.222;2022-11-20T03:41:40;101197.00;;;24.00
44429;BMP180;30134;47.866;-4.222;2022-11-20T03:44:11;101184.00;;;24.00
44429;BMP180;30134;47.866;-4.222;2022-11-20T03:46:38;101182.00;;;24.00
44429;BMP180;30134;47.866;-4.222;2022-11-20T03:49:06;101189.00;;;24.00
44429;BMP180;30134;47.866;-4.222;2022-11-20T03:51:35;101180.00;;;24.00
44429;BMP180;30134;47.866;-4.222;2022-11-20T03:54:05;101190.00;;;24.00
44429;BMP180;30134;47.866;-4.222;2022-11-20T03:56:35;101186.00;;;24.00
44429;BMP180;30134;47.866;-4.222;2022-11-20T03:59:02;101178.00;;;24.00
44429;BMP180;30134;47.866;-4.222;2022-11-20T04:01:32;101182.00;;;24.00
44429;BMP180;30134;47.866;-4.222;2022-11-20T04:03:59;101181.00;;;24.00
44429;BMP180;30134;47.866;-4.222;2022-11-20T04:06:28;101185.00;;;24.00
44429;BMP180;30134;47.866;-4.222;2022-11-20T04:08:56;101184.00;;;24.00
44429;BMP180;30134;47.866;-4.222;2022-11-20T04:11:28;101181.00;;;24.00
44429;BMP180;30134;47.866;-4.222;2022-11-20T04:13:57;101181.00;;;24.00
44429;BMP180;30134;47.866;-4.222;2022-11-20T04:16:25;101187.00;;;24.00
44429;BMP180;30134;47.866;-4.222;2022-11-20T04:18:53;101179.00;;;24.00
44429;BMP180;30134;47.866;-4.222;2022-11-20T04:21:19;101191.00;;;24.00
44429;BMP180;30134;47.866;-4.222;2022-11-20T04:23:46;101193.00;;;24.00
44429;BMP180;30134;47.866;-4.222;2022-11-20T04:26:12;101194.00;;;24.00
44429;BMP180;30134;47.866;-4.222;2022-11-20T04:28:38;101197.00;;;24.00
44429;BMP180;30134;47.866;-4.222;2022-11-20T04:31:07;101203.00;;;24.00
44429;BMP180;30134;47.866;-4.222;2022-11-20T04:33:34;101203.00;;;24.00
44429;BMP180;30134;47.866;-4.222;2022-11-20T04:36:14;101199.00;;;24.00
44429;BMP180;30134;47.866;-4.222;2022-11-20T04:38:41;101203.00;;;24.00
44429;BMP180;30134;47.866;-4.222;2022-11-20T04:41:18;101210.00;;;24.00
44429;BMP180;30134;47.866;-4.222;2022-11-20T04:43:49;101219.00;;;24.00
44429;BMP180;30134;47.866;-4.222;2022-11-20T04:46:16;101223.00;;;24.00
44429;BMP180;30134;47.866;-4.222;2022-11-20T04:48:42;101239.00;;;24.00
44429;BMP180;30134;47.866;-4.222;2022-11-20T04:51:08;101240.00;;;24.00
44429;BMP180;30134;47.866;-4.222;2022-11-20T04:53:35;101238.00;;;24.00
44429;BMP180;30134;47.866;-4.222;2022-11-20T04:56:03;101250.00;;;24.00
44429;BMP180;30134;47.866;-4.222;2022-11-20T04:58:29;101272.00;;;24.00
44429;BMP180;30134;47.866;-4.222;2022-11-20T05:01:22;101268.00;;;24.00
44429;BMP180;30134;47.866;-4.222;2022-11-20T05:03:49;101287.00;;;24.00
44429;BMP180;30134;47.866;-4.222;2022-11-20T05:06:18;101292.00;;;24.00
44429;BMP180;30134;47.866;-4.222;2022-11-20T05:08:45;101287.00;;;24.00
44429;BMP180;30134;47.866;-4.222;2022-11-20T05:11:14;101290.00;;;24.00
44429;BMP180;30134;47.866;-4.222;2022-11-20T05:13:41;101299.00;;;24.00
44429;BMP180;30134;47.866;-4.222;2022-11-20T05:16:34;101299.00;;;24.00
44429;BMP180;30134;47.866;-4.222;2022-11-20T05:19:00;101306.00;;;24.00
44429;BMP180;30134;47.866;-4.222;2022-11-20T05:21:25;101320.00;;;24.00
44429;BMP180;30134;47.866;-4.222;2022-11-20T05:23:51;101324.00;;;24.00
44429;BMP180;30134;47.866;-4.222;2022-11-20T05:26:22;101320.00;;;24.00
44429;BMP180;30134;47.866;-4.222;2022-11-20T05:28:49;101311.00;;;24.00
44429;BMP180;30134;47.866;-4.222;2022-11-20T05:31:18;101306.00;;;24.00
44429;BMP180;30134;47.866;-4.222;2022-11-20T05:33:45;101305.00;;;24.00
44429;BMP180;30134;47.866;-4.222;2022-11-20T05:36:13;101306.00;;;24.00
44429;BMP180;30134;47.866;-4.222;2022-11-20T05:38:41;101312.00;;;24.00
44429;BMP180;30134;47.866;-4.222;2022-11-20T05:41:19;101315.00;;;24.00
44429;BMP180;30134;47.866;-4.222;2022-11-20T05:43:47;101335.00;;;24.00
44429;BMP180;30134;47.866;-4.222;2022-11-20T05:46:17;101320.00;;;24.00
44429;BMP180;30134;47.866;-4.222;2022-11-20T05:48:45;101317.00;;;24.00
44429;BMP180;30134;47.866;-4.222;2022-11-20T05:51:15;101319.00;;;24.00
44429;BMP180;30134;47.866;-4.222;2022-11-20T05:53:41;101319.00;;;24.00
44429;BMP180;30134;47.866;-4.222;2022-11-20T05:56:12;101330.00;;;24.00
44429;BMP180;30134;47.866;-4.222;2022-11-20T05:58:39;101319.00;;;24.00
44429;BMP180;30134;47.866;-4.222;2022-11-20T06:01:18;101321.00;;;24.00
44429;BMP180;30134;47.866;-4.222;2022-11-20T06:03:45;101336.00;;;24.00
44429;BMP180;30134;47.866;-4.222;2022-11-20T06:06:15;101338.00;;;24.00
44429;BMP180;30134;47.866;-4.222;2022-11-20T06:08:42;101342.00;;;24.00
44429;BMP180;30134;47.866;-4.222;2022-11-20T06:11:11;101337.00;;;24.00
44429;BMP180;30134;47.866;-4.222;2022-11-20T06:13:38;101335.00;;;24.00
44429;BMP180;30134;47.866;-4.222;2022-11-20T06:16:04;101332.00;;;24.00
44429;BMP180;30134;47.866;-4.222;2022-11-20T06:18:31;101326.00;;;24.00
44429;BMP180;30134;47.866;-4.222;2022-11-20T06:21:11;101336.00;;;24.00
44429;BMP180;30134;47.866;-4.222;2022-11-20T06:23:38;101335.00;;;24.00
44429;BMP180;30134;47.866;-4.222;2022-11-20T06:26:10;101336.00;;;24.00
44429;BMP180;30134;47.866;-4.222;2022-11-20T06:28:36;101341.00;;;24.00
44429;BMP180;30134;47.866;-4.222;2022-11-20T06:31:03;101355.00;;;24.00
44429;BMP180;30134;47.866;-4.222;2022-11-20T06:33:30;101351.00;;;24.00
44429;BMP180;30134;47.866;-4.222;2022-11-20T06:35:58;101357.00;;;24.00
44429;BMP180;30134;47.866;-4.222;2022-11-20T06:38:26;101357.00;;;24.00
44429;BMP180;30134;47.866;-4.222;2022-11-20T06:40:52;101342.00;;;24.00
44429;BMP180;30134;47.866;-4.222;2022-11-20T06:43:19;101337.00;;;24.00
44429;BMP180;30134;47.866;-4.222;2022-11-20T06:45:46;101355.00;;;24.00
44429;BMP180;30134;47.866;-4.222;2022-11-20T06:48:20;101352.00;;;24.00
44429;BMP180;30134;47.866;-4.222;2022-11-20T06:50:46;101356.00;;;24.00
44429;BMP180;30134;47.866;-4.222;2022-11-20T06:53:12;101355.00;;;24.00
44429;BMP180;30134;47.866;-4.222;2022-11-20T06:55:43;101351.00;;;24.00
44429;BMP180;30134;47.866;-4.222;2022-11-20T06:58:09;101352.00;;;24.00
44429;BMP180;30134;47.866;-4.222;2022-11-20T07:00:35;101348.00;;;24.00
44429;BMP180;30134;47.866;-4.222;2022-11-20T07:03:10;101362.00;;;24.00
44429;BMP180;30134;47.866;-4.222;2022-11-20T07:05:37;101374.00;;;24.00
44429;BMP180;30134;47.866;-4.222;2022-11-20T07:08:04;101370.00;;;24.00
44429;BMP180;30134;47.866;-4.222;2022-11-20T07:10:31;101364.00;;;24.00
44429;BMP180;30134;47.866;-4.222;2022-11-20T07:12:57;101361.00;;;24.00
44429;BMP180;30134;47.866;-4.222;2022-11-20T07:15:25;101373.00;;;24.00
44429;BMP180;30134;47.866;-4.222;2022-11-20T07:17:51;101370.00;;;24.00
44429;BMP180;30134;47.866;-4.222;2022-11-20T07:20:18;101376.00;;;24.00
44429;BMP180;30134;47.866;-4.222;2022-11-20T07:22:44;101376.00;;;24.00
44429;BMP180;30134;47.866;-4.222;2022-11-20T07:25:10;101375.00;;;24.00
44429;BMP180;30134;47.866;-4.222;2022-11-20T07:27:37;101385.00;;;24.00
44429;BMP180;30134;47.866;-4.222;2022-11-20T07:30:04;101391.00;;;24.00
44429;BMP180;30134;47.866;-4.222;2022-11-20T07:32:30;101392.00;;;24.00
44429;BMP180;30134;47.866;-4.222;2022-11-20T07:34:56;101398.00;;;24.00
44429;BMP180;30134;47.866;-4.222;2022-11-20T07:37:22;101394.00;;;24.00
44429;BMP180;30134;47.866;-4.222;2022-11-20T07:39:48;101396.00;;;24.00
44429;BMP180;30134;47.866;-4.222;2022-11-20T07:42:14;101392.00;;;24.00
44429;BMP180;30134;47.866;-4.222;2022-11-20T07:44:39;101395.00;;;24.00
44429;BMP180;30134;47.866;-4.222;2022-11-20T07:47:05;101397.00;;;24.00
44429;BMP180;30134;47.866;-4.222;2022-11-20T07:49:31;101406.00;;;24.00
44429;BMP180;30134;47.866;-4.222;2022-11-20T07:51:57;101421.00;;;24.00
44429;BMP180;30134;47.866;-4.222;2022-11-20T07:54:23;101433.00;;;24.00
44429;BMP180;30134;47.866;-4.222;2022-11-20T07:56:49;101440.00;;;24.00
44429;BMP180;30134;47.866;-4.222;2022-11-20T07:59:15;101441.00;;;24.00
44429;BMP180;30134;47.866;-4.222;2022-11-20T08:01:42;101443.00;;;24.00
44429;BMP180;30134;47.866;-4.222;2022-11-20T08:04:09;101462.00;;;24.00
44429;BMP180;30134;47.866;-4.222;2022-11-20T08:06:36;101462.00;;;24.00
44429;BMP180;30134;47.866;-4.222;2022-11-20T08:09:02;101473.00;;;24.00
44429;BMP180;30134;47.866;-4.222;2022-11-20T08:11:28;101480.00;;;24.00
44429;BMP180;30134;47.866;-4.222;2022-11-20T08:14:13;101489.00;;;24.00
44429;BMP180;30134;47.866;-4.222;2022-11-20T08:16:47;101492.00;;;24.00
44429;BMP180;30134;47.866;-4.222;2022-11-20T08:19:15;101494.00;;;24.00
44429;BMP180;30134;47.866;-4.222;2022-11-20T08:21:42;101504.00;;;24.00
44429;BMP180;30134;47.866;-4.222;2022-11-20T08:24:09;101504.00;;;24.00
44429;BMP180;30134;47.866;-4.222;2022-11-20T08:26:37;101514.00;;;24.00
44429;BMP180;30134;47.866;-4.222;2022-11-20T08:29:04;101511.00;;;24.00
44429;BMP180;30134;47.866;-4.222;2022-11-20T08:31:31;101513.00;;;24.00
44429;BMP180;30134;47.866;-4.222;2022-11-20T08:33:57;101518.00;;;24.00
44429;BMP180;30134;47.866;-4.222;2022-11-20T08:36:24;101522.00;;;24.00
44429;BMP180;30134;47.866;-4.222;2022-11-20T08:38:55;101517.00;;;24.00
44429;BMP180;30134;47.866;-4.222;2022-11-20T08:41:22;101529.00;;;24.00
44429;BMP180;30134;47.866;-4.222;2022-11-20T08:44:02;101542.00;;;24.00
44429;BMP180;30134;47.866;-4.222;2022-11-20T08:46:34;101539.00;;;24.00
44429;BMP180;30134;47.866;-4.222;2022-11-20T08:49:07;101540.00;;;24.00
44429;BMP180;30134;47.866;-4.222;2022-11-20T08:51:33;101540.00;;;24.00
44429;BMP180;30134;47.866;-4.222;2022-11-20T08:54:00;101536.00;;;24.00
44429;BMP180;30134;47.866;-4.222;2022-11-20T08:56:26;101541.00;;;24.00
44429;BMP180;30134;47.866;-4.222;2022-11-20T08:58:52;101545.00;;;24.00
44429;BMP180;30134;47.866;-4.222;2022-11-20T09:01:19;101545.00;;;24.00
44429;BMP180;30134;47.866;-4.222;2022-11-20T09:03:45;101552.00;;;24.00
44429;BMP180;30134;47.866;-4.222;2022-11-20T09:06:12;101556.00;;;24.00
44429;BMP180;30134;47.866;-4.222;2022-11-20T09:08:38;101561.00;;;24.00
44429;BMP180;30134;47.866;-4.222;2022-11-20T09:11:04;101567.00;;;24.00
44429;BMP180;30134;47.866;-4.222;2022-11-20T09:13:31;101565.00;;;24.00
44429;BMP180;30134;47.866;-4.222;2022-11-20T09:16:05;101570.00;;;24.00
44429;BMP180;30134;47.866;-4.222;2022-11-20T09:18:32;101589.00;;;24.00
44429;BMP180;30134;47.866;-4.222;2022-11-20T09:21:04;101576.00;;;24.00
44429;BMP180;30134;47.866;-4.222;2022-11-20T09:23:34;101578.00;;;24.00
44429;BMP180;30134;47.866;-4.222;2022-11-20T09:26:11;101575.00;;;24.00
44429;BMP180;30134;47.866;-4.222;2022-11-20T09:28:37;101582.00;;;24.00
44429;BMP180;30134;47.866;-4.222;2022-11-20T09:31:43;101590.00;;;24.00
44429;BMP180;30134;47.866;-4.222;2022-11-20T09:34:02;101594.00;;;24.00
44429;BMP180;30134;47.866;-4.222;2022-11-20T09:36:28;101582.00;;;24.00
44429;BMP180;30134;47.866;-4.222;2022-11-20T09:38:54;101577.00;;;24.00
44429;BMP180;30134;47.866;-4.222;2022-11-20T09:47:58;101585.00;;;23.90
44429;BMP180;30134;47.866;-4.222;2022-11-20T09:53:57;101574.00;;;23.90
44429;BMP180;30134;47.866;-4.222;2022-11-20T09:56:28;101571.00;;;23.90
44429;BMP180;30134;47.866;-4.222;2022-11-20T09:58:59;101568.00;;;23.90
44429;BMP180;30134;47.866;-4.222;2022-11-20T10:01:32;101565.00;;;23.90
44429;BMP180;30134;47.866;-4.222;2022-11-20T10:06:56;101568.00;;;23.90
44429;BMP180;30134;47.866;-4.222;2022-11-20T10:09:37;101565.00;;;23.90
44429;BMP180;30134;47.866;-4.222;2022-11-20T10:21:09;101562.00;;;23.90
44429;BMP180;30134;47.866;-4.222;2022-11-20T10:30:11;101588.00;;;23.90
44429;BMP180;30134;47.866;-4.222;2022-11-20T10:32:45;101583.00;;;23.90
44429;BMP180;30134;47.866;-4.222;2022-11-20T10:38:02;101594.00;;;23.90
44429;BMP180;30134;47.866;-4.222;2022-11-20T10:40:54;101598.00;;;23.90
44429;BMP180;30134;47.866;-4.222;2022-11-20T10:43:40;101593.00;;;23.90
44429;BMP180;30134;47.866;-4.222;2022-11-20T10:46:18;101590.00;;;23.90
44429;BMP180;30134;47.866;-4.222;2022-11-20T10:48:46;101596.00;;;23.90
44429;BMP180;30134;47.866;-4.222;2022-11-20T10:56:50;101603.00;;;23.90
44429;BMP180;30134;47.866;-4.222;2022-11-20T11:01:44;101604.00;;;23.90
44429;BMP180;30134;47.866;-4.222;2022-11-20T11:04:40;101602.00;;;23.90
44429;BMP180;30134;47.866;-4.222;2022-11-20T11:07:37;101604.00;;;23.90
44429;BMP180;30134;47.866;-4.222;2022-11-20T11:12:48;101603.00;;;23.90
44429;BMP180;30134;47.866;-4.222;2022-11-20T11:15:27;101607.00;;;23.90
44429;BMP180;30134;47.866;-4.222;2022-11-20T11:17:54;101612.00;;;23.90
44429;BMP180;30134;47.866;-4.222;2022-11-20T11:20:23;101612.00;;;23.90
44429;BMP180;30134;47.866;-4.222;2022-11-20T11:22:59;101605.00;;;23.90
44429;BMP180;30134;47.866;-4.222;2022-11-20T11:25:34;101613.00;;;23.90
44429;BMP180;30134;47.866;-4.222;2022-11-20T11:28:05;101606.00;;;23.90
44429;BMP180;30134;47.866;-4.222;2022-11-20T11:30:45;101604.00;;;23.90
44429;BMP180;30134;47.866;-4.222;2022-11-20T11:33:21;101616.00;;;23.90
44429;BMP180;30134;47.866;-4.222;2022-11-20T11:35:59;101601.00;;;23.90
44429;BMP180;30134;47.866;-4.222;2022-11-20T11:38:35;101598.00;;;23.90
44429;BMP180;30134;47.866;-4.222;2022-11-20T11:41:03;101602.00;;;23.90
44429;BMP180;30134;47.866;-4.222;2022-11-20T11:43:33;101613.00;;;23.90
44429;BMP180;30134;47.866;-4.222;2022-11-20T11:46:31;101604.00;;;23.90
44429;BMP180;30134;47.866;-4.222;2022-11-20T11:49:21;101598.00;;;23.90
44429;BMP180;30134;47.866;-4.222;2022-11-20T11:54:28;101586.00;;;23.90
44429;BMP180;30134;47.866;-4.222;2022-11-20T11:57:00;101582.00;;;23.90
44429;BMP180;30134;47.866;-4.222;2022-11-20T11:59:44;101580.00;;;23.90
44429;BMP180;30134;47.866;-4.222;2022-11-20T12:02:49;101579.00;;;23.90
44429;BMP180;30134;47.866;-4.222;2022-11-20T12:05:46;101580.00;;;23.90
44429;BMP180;30134;47.866;-4.222;2022-11-20T12:13:56;101584.00;;;23.90
44429;BMP180;30134;47.866;-4.222;2022-11-20T12:16:24;101584.00;;;23.90
44429;BMP180;30134;47.866;-4.222;2022-11-20T12:18:52;101590.00;;;23.90
44429;BMP180;30134;47.866;-4.222;2022-11-20T12:30:01;101593.00;;;23.90
44429;BMP180;30134;47.866;-4.222;2022-11-20T12:33:04;101594.00;;;23.90
44429;BMP180;30134;47.866;-4.222;2022-11-20T12:38:58;101591.00;;;23.90
44429;BMP180;30134;47.866;-4.222;2022-11-20T12:45:10;101591.00;;;23.90
44429;BMP180;30134;47.866;-4.222;2022-11-20T12:59:14;101581.00;;;23.90
44429;BMP180;30134;47.866;-4.222;2022-11-20T13:05:01;101586.00;;;23.90
44429;BMP180;30134;47.866;-4.222;2022-11-20T13:07:30;101575.00;;;23.90
44429;BMP180;30134;47.866;-4.222;2022-11-20T13:09:59;101585.00;;;24.00
44429;BMP180;30134;47.866;-4.222;2022-11-20T13:12:51;101586.00;;;24.00
44429;BMP180;30134;47.866;-4.222;2022-11-20T13:16:19;101587.00;;;24.00
44429;BMP180;30134;47.866;-4.222;2022-11-20T13:18:26;101581.00;;;24.00
44429;BMP180;30134;47.866;-4.222;2022-11-20T13:20:53;101578.00;;;24.00
44429;BMP180;30134;47.866;-4.222;2022-11-20T13:23:27;101581.00;;;24.00
44429;BMP180;30134;47.866;-4.222;2022-11-20T13:26:18;101573.00;;;24.00
44429;BMP180;30134;47.866;-4.222;2022-11-20T13:28:46;101576.00;;;24.00
44429;BMP180;30134;47.866;-4.222;2022-11-20T13:31:32;101585.00;;;24.00
44429;BMP180;30134;47.866;-4.222;2022-11-20T13:34:01;101592.00;;;24.00
44429;BMP180;30134;47.866;-4.222;2022-11-20T13:36:32;101591.00;;;24.00
44429;BMP180;30134;47.866;-4.222;2022-11-20T13:39:00;101594.00;;;24.00
44429;BMP180;30134;47.866;-4.222;2022-11-20T13:41:33;101599.00;;;24.00
44429;BMP180;30134;47.866;-4.222;2022-11-20T13:44:22;101582.00;;;24.00
44429;BMP180;30134;47.866;-4.222;2022-11-20T13:46:49;101603.00;;;24.00
44429;BMP180;30134;47.866;-4.222;2022-11-20T14:03:42;101600.00;;;23.80
44429;BMP180;30134;47.866;-4.222;2022-11-20T14:06:31;101612.00;;;23.80
44429;BMP180;30134;47.866;-4.222;2022-11-20T14:08:59;101597.00;;;23.80
44429;BMP180;30134;47.866;-4.222;2022-11-20T14:11:28;101597.00;;;23.90
44429;BMP180;30134;47.866;-4.222;2022-11-20T14:16:26;101598.00;;;23.90
44429;BMP180;30134;47.866;-4.222;2022-11-20T14:18:54;101591.00;;;23.90
44429;BMP180;30134;47.866;-4.222;2022-11-20T14:21:29;101588.00;;;23.90
44429;BMP180;30134;47.866;-4.222;2022-11-20T14:24:11;101591.00;;;23.90
44429;BMP180;30134;47.866;-4.222;2022-11-20T14:26:44;101593.00;;;23.90
44429;BMP180;30134;47.866;-4.222;2022-11-20T14:29:19;101593.00;;;24.00
44429;BMP180;30134;47.866;-4.222;2022-11-20T14:31:47;101590.00;;;24.00
44429;BMP180;30134;47.866;-4.222;2022-11-20T14:34:25;101590.00;;;24.00
44429;BMP180;30134;47.866;-4.222;2022-11-20T14:37:01;101598.00;;;24.00
44429;BMP180;30134;47.866;-4.222;2022-11-20T14:39:37;101581.00;;;24.00
44429;BMP180;30134;47.866;-4.222;2022-11-20T14:42:22;101582.00;;;24.00
44429;BMP180;30134;47.866;-4.222;2022-11-20T14:44:50;101592.00;;;24.00
44429;BMP180;30134;47.866;-4.222;2022-11-20T14:47:29;101596.00;;;24.00
44429;BMP180;30134;47.866;-4.222;2022-11-20T14:49:58;101597.00;;;24.00
44429;BMP180;30134;47.866;-4.222;2022-11-20T14:52:27;101595.00;;;24.10
44429;BMP180;30134;47.866;-4.222;2022-11-20T14:54:58;101598.00;;;24.10
44429;BMP180;30134;47.866;-4.222;2022-11-20T14:57:35;101594.00;;;24.10
44429;BMP180;30134;47.866;-4.222;2022-11-20T15:00:21;101605.00;;;24.10
44429;BMP180;30134;47.866;-4.222;2022-11-20T15:02:49;101601.00;;;24.10
44429;BMP180;30134;47.866;-4.222;2022-11-20T15:05:18;101609.00;;;24.10
44429;BMP180;30134;47.866;-4.222;2022-11-20T15:07:51;101602.00;;;24.10
44429;BMP180;30134;47.866;-4.222;2022-11-20T15:10:27;101609.00;;;24.10
44429;BMP180;30134;47.866;-4.222;2022-11-20T15:13:10;101608.00;;;24.10
44429;BMP180;30134;47.866;-4.222;2022-11-20T15:15:58;101609.00;;;24.10
44429;BMP180;30134;47.866;-4.222;2022-11-20T15:18:40;101602.00;;;24.10
44429;BMP180;30134;47.866;-4.222;2022-11-20T15:21:15;101597.00;;;24.10
44429;BMP180;30134;47.866;-4.222;2022-11-20T15:23:42;101589.00;;;24.10
44429;BMP180;30134;47.866;-4.222;2022-11-20T15:26:11;101596.00;;;24.10
44429;BMP180;30134;47.866;-4.222;2022-11-20T15:28:43;101598.00;;;24.10
44429;BMP180;30134;47.866;-4.222;2022-11-20T15:31:13;101592.00;;;24.10
44429;BMP180;30134;47.866;-4.222;2022-11-20T15:33:39;101595.00;;;24.10
44429;BMP180;30134;47.866;-4.222;2022-11-20T15:36:10;101593.00;;;24.10
44429;BMP180;30134;47.866;-4.222;2022-11-20T15:38:37;101594.00;;;24.10
44429;BMP180;30134;47.866;-4.222;2022-11-20T15:41:03;101594.00;;;24.10
44429;BMP180;30134;47.866;-4.222;2022-11-20T15:43:29;101599.00;;;24.10
44429;BMP180;30134;47.866;-4.222;2022-11-20T15:46:05;101595.00;;;24.10
44429;BMP180;30134;47.866;-4.222;2022-11-20T15:48:39;101597.00;;;24.10